Forside
METAR-TAF:

METAR-TAF

Lufthavne :

Kunming, Kina

Breddekreds: 25-01N, længdekreds: 102-41E, højde: 1892 m

Aktuelle vejr

Denne rapport blev lavet for 18 minutter siden, kl. 17:00 UTC
Vind 6 kt fra sydsydøst, varierende mellem østsydøst og sydsydvest
Temperatur 18°C
Fugtighed 94%
Tryk 1016 hPa
Sigt 10 km eller mere
Nogle få skyer i en højde af 1000 ft
Brudte skyer i en højde af 2000 ft
Overskyet i en højde af 3600 ft

METAR: ZPPP 251700Z 16003MPS 110V200 9999 FEW010 BKN020 OVC036 18/17 Q1016 NOSIG

Tid: 01:18 (17:18 UTC)

Vejrudsigter

Denne rapport blev lavet for 10 timer og 4 minutter siden, kl. 07:14 UTC
Foreløbig gælder fra 25 på 12 UTC til 26 på 12 UTC
Vind 8 kt fra syd
Sigt 10 km eller mere
Spredte skyer i en højde af 2000 ft
Brudte skyer i en højde af 3300 ft

TAF: ZPPP 250714Z 2512/2612 18004MPS 9999 SCT020 BKN033 TX25/2608Z TN16/2523Z

Vejrobservationer og prognoser fra mere end 4000 lufthavne (METAR og TAF).

De gule og røde prikker repræsenterer de meteorologiske stationer.

Flyt musen over at se navnet på stationen.

Så klik over at se vejr observationer og prognoser.

At skifte det kort: Klik på de grønne knapper med et sort kors for at zoome ind; på den grønne knap med en bindestreg for at zoome ud; eller på de grønne pile for tilstødende kort.


METAR-TAF: